Arena, Wisconsin
Current Conditions -  °F | °C
As of 4:56 PM on Thursday 27 Nov 2014 (Local Time) from KLNR Reporting Station
Clear Clear  
Wind Chill: 16°   Ceiling: Unl
Heat Index: 16°   Visibility: 10mi
Dew Point: -2°   Wind: 3mph
Humidity: 45%   Direction: 310°NW
Pressure: 30.42"   Gusts: NA
Location:  43.17°N, 89.91°W
Report Text: KLNR 272256Z AUTO 31003KT 10SM CLR M09/M19 A3042 RMK AO2 SLP310 T10891189
Loading
Personal Weather Stations






























Interactive Weather Map New forecast layout! Learn more

10-Day Weather Forecast

Advertisements
Track Severe Weather on mobile